createdAt,value
2024-05-09T00:02:41.484Z,100.00
2024-05-09T00:05:44.700Z,100.00
2024-05-09T00:08:47.492Z,100.00
2024-05-09T00:11:50.202Z,100.00
2024-05-09T00:14:52.874Z,100.00
2024-05-09T00:17:55.546Z,100.00
2024-05-09T00:20:58.253Z,100.00
2024-05-09T00:24:00.933Z,100.00
2024-05-09T00:27:03.530Z,100.00
2024-05-09T00:30:07.263Z,100.00
2024-05-09T00:33:11.162Z,100.00
2024-05-09T00:36:14.286Z,100.00
2024-05-09T00:39:16.839Z,100.00
2024-05-09T00:42:19.468Z,100.00
2024-05-09T00:45:22.074Z,100.00
2024-05-09T00:48:27.297Z,100.00
2024-05-09T00:51:30.264Z,100.00
2024-05-09T00:54:33.622Z,100.00
2024-05-09T00:57:36.254Z,100.00
2024-05-09T01:00:40.941Z,100.00
2024-05-09T01:03:45.930Z,100.00
2024-05-09T01:06:49.418Z,100.00
2024-05-09T01:09:51.917Z,100.00
2024-05-09T01:12:54.548Z,100.00
2024-05-09T01:15:58.546Z,100.00
2024-05-09T01:19:02.075Z,100.00
2024-05-09T01:22:04.959Z,100.00
2024-05-09T01:25:07.773Z,100.00
2024-05-09T01:28:10.540Z,100.00
2024-05-09T01:31:16.318Z,100.00
2024-05-09T01:34:19.381Z,100.00
2024-05-09T01:37:21.996Z,100.00
2024-05-09T01:40:33.528Z,100.00
2024-05-09T01:43:40.484Z,100.00
2024-05-09T01:46:43.079Z,100.00
2024-05-09T01:49:45.717Z,100.00
2024-05-09T01:52:48.404Z,100.00
2024-05-09T01:55:51.016Z,100.00
2024-05-09T01:58:53.655Z,100.00
2024-05-09T02:01:57.895Z,100.00
2024-05-09T02:05:00.774Z,100.00
2024-05-09T02:08:03.513Z,100.00
2024-05-09T02:11:06.277Z,100.00
2024-05-09T02:14:08.857Z,100.00
2024-05-09T02:17:11.371Z,100.00
2024-05-09T02:20:22.426Z,100.00
2024-05-09T02:23:30.021Z,100.00
2024-05-09T02:26:32.660Z,100.00
2024-05-09T02:29:35.538Z,100.00
2024-05-09T02:32:38.343Z,100.00
2024-05-09T02:35:41.862Z,100.00
2024-05-09T02:38:44.610Z,100.00
2024-05-09T02:41:47.163Z,100.00
2024-05-09T02:44:49.788Z,100.00
2024-05-09T02:47:52.527Z,100.00
2024-05-09T02:50:55.297Z,100.00
2024-05-09T02:53:57.923Z,100.00
2024-05-09T02:57:00.491Z,100.00
2024-05-09T03:00:03.655Z,100.00
2024-05-09T03:03:10.599Z,100.00
2024-05-09T03:06:15.203Z,100.00
2024-05-09T03:09:17.788Z,100.00
2024-05-09T03:12:20.343Z,100.00
2024-05-09T03:15:23.072Z,100.00
2024-05-09T03:18:25.688Z,100.00
2024-05-09T03:21:28.404Z,100.00
2024-05-09T03:24:30.906Z,100.00
2024-05-09T03:27:33.493Z,100.00
2024-05-09T03:30:41.291Z,100.00
2024-05-09T03:33:46.227Z,100.00
2024-05-09T03:36:49.030Z,100.00
2024-05-09T03:39:51.555Z,100.00
2024-05-09T03:42:54.260Z,100.00
2024-05-09T03:45:57.431Z,100.00
2024-05-09T03:49:00.015Z,100.00
2024-05-09T03:52:05.629Z,100.00
2024-05-09T03:55:08.345Z,100.00
2024-05-09T03:58:13.233Z,100.00
2024-05-09T04:01:15.822Z,100.00
2024-05-09T04:04:18.419Z,100.00
2024-05-09T04:07:21.071Z,100.00
2024-05-09T04:10:30.519Z,100.00
2024-05-09T04:13:35.819Z,100.00
2024-05-09T04:16:38.323Z,100.00
2024-05-09T04:19:40.979Z,100.00
2024-05-09T04:22:43.732Z,100.00
2024-05-09T04:25:47.206Z,100.00
2024-05-09T04:28:49.852Z,100.00
2024-05-09T04:31:52.516Z,100.00
2024-05-09T04:34:55.207Z,100.00
2024-05-09T04:37:57.849Z,100.00
2024-05-09T04:41:00.527Z,100.00
2024-05-09T04:44:03.178Z,100.00
2024-05-09T04:47:05.692Z,100.00
2024-05-09T04:50:11.589Z,100.00
2024-05-09T04:53:17.635Z,100.00
2024-05-09T04:56:20.393Z,98.20
2024-05-09T04:59:23.050Z,100.00
2024-05-09T05:02:25.620Z,93.76
2024-05-09T05:05:28.339Z,95.71
2024-05-09T05:08:31.153Z,94.15
2024-05-09T05:11:34.067Z,90.80
2024-05-09T05:14:36.655Z,94.89
2024-05-09T05:17:40.325Z,91.86
2024-05-09T05:20:43.693Z,89.64
2024-05-09T05:23:46.319Z,93.45
2024-05-09T05:26:48.888Z,90.75
2024-05-09T05:29:51.440Z,86.09
2024-05-09T05:32:54.377Z,88.55
2024-05-09T05:35:57.667Z,83.53
2024-05-09T05:39:00.247Z,79.92
2024-05-09T05:42:02.802Z,80.52
2024-05-09T05:45:09.875Z,79.46
2024-05-09T05:48:14.154Z,79.32
2024-05-09T05:51:17.030Z,78.05
2024-05-09T05:54:19.717Z,76.49
2024-05-09T05:57:22.212Z,76.72
2024-05-09T06:00:30.166Z,76.30
2024-05-09T06:03:40.153Z,77.51
2024-05-09T06:06:42.900Z,77.05
2024-05-09T06:09:47.634Z,75.28
2024-05-09T06:12:51.590Z,74.70
2024-05-09T06:15:54.036Z,75.06
2024-05-09T06:18:56.712Z,74.07
2024-05-09T06:21:59.397Z,74.16
2024-05-09T06:25:01.992Z,72.56
2024-05-09T06:28:05.170Z,73.42
2024-05-09T06:31:07.977Z,73.06
2024-05-09T06:34:10.828Z,72.70
2024-05-09T06:37:13.594Z,75.88
2024-05-09T06:40:21.384Z,72.03
2024-05-09T06:43:28.002Z,74.26
2024-05-09T06:46:30.618Z,72.81
2024-05-09T06:49:33.326Z,71.70
2024-05-09T06:52:35.953Z,73.21
2024-05-09T06:55:38.464Z,71.40
2024-05-09T06:58:41.110Z,73.26
2024-05-09T07:01:43.839Z,72.42
2024-05-09T07:04:46.703Z,72.16
2024-05-09T07:07:49.430Z,71.82
2024-05-09T07:10:52.196Z,72.96
2024-05-09T07:13:54.898Z,70.63
2024-05-09T07:16:57.496Z,71.30
2024-05-09T07:20:00.658Z,69.87
2024-05-09T07:23:03.826Z,70.60
2024-05-09T07:26:06.445Z,67.94
2024-05-09T07:29:09.127Z,65.67
2024-05-09T07:32:11.946Z,66.88
2024-05-09T07:35:14.676Z,67.07
2024-05-09T07:38:17.450Z,66.55
2024-05-09T07:41:20.045Z,67.91
2024-05-09T07:44:22.809Z,67.82
2024-05-09T07:48:56.930Z,61.55
2024-05-09T07:53:58.288Z,62.03
2024-05-09T07:57:03.166Z,63.32
2024-05-09T08:00:06.770Z,60.81
2024-05-09T08:03:11.005Z,61.55
2024-05-09T08:06:13.652Z,59.51
2024-05-09T08:09:20.916Z,59.38
2024-05-09T08:12:24.012Z,58.40
2024-05-09T08:15:26.679Z,54.43
2024-05-09T08:18:29.543Z,57.87
2024-05-09T08:21:32.573Z,54.38
2024-05-09T08:24:36.182Z,55.21
2024-05-09T08:27:38.790Z,56.56
2024-05-09T08:30:41.812Z,53.90
2024-05-09T08:33:48.646Z,57.79
2024-05-09T08:36:51.369Z,53.12
2024-05-09T08:39:53.974Z,52.12
2024-05-09T08:42:58.077Z,54.98
2024-05-09T08:46:02.621Z,51.92
2024-05-09T08:49:05.523Z,54.76
2024-05-09T08:52:08.836Z,51.97
2024-05-09T08:55:11.501Z,49.67
2024-05-09T08:58:20.546Z,48.53
2024-05-09T09:01:24.293Z,47.76
2024-05-09T09:04:28.558Z,51.83
2024-05-09T09:07:33.855Z,51.22
2024-05-09T09:10:40.104Z,52.50
2024-05-09T09:13:42.733Z,48.37
2024-05-09T09:16:46.351Z,48.26
2024-05-09T09:19:48.899Z,45.89
2024-05-09T09:22:52.976Z,47.89
2024-05-09T09:25:59.319Z,45.32
2024-05-09T09:29:02.589Z,46.26
2024-05-09T09:32:07.312Z,49.08
2024-05-09T09:35:09.879Z,48.74
2024-05-09T09:38:18.673Z,46.33
2024-05-09T09:41:26.158Z,52.88
2024-05-09T09:44:29.624Z,45.52
2024-05-09T09:47:33.626Z,46.25
2024-05-09T09:50:36.673Z,46.03
2024-05-09T09:53:39.636Z,48.05
2024-05-09T09:56:43.639Z,44.89
2024-05-09T09:59:49.410Z,43.33
2024-05-09T10:02:51.995Z,43.46
2024-05-09T10:05:55.469Z,41.96
2024-05-09T10:08:58.438Z,44.24
2024-05-09T10:12:14.509Z,45.54
2024-05-09T10:15:20.512Z,45.29
2024-05-09T10:18:30.273Z,43.58
2024-05-09T10:21:33.984Z,43.75
2024-05-09T10:25:09.048Z,43.10
2024-05-09T10:28:12.855Z,41.68
2024-05-09T10:31:16.675Z,40.84
2024-05-09T10:34:21.724Z,39.49
2024-05-09T10:37:25.822Z,40.08
2024-05-09T10:40:31.699Z,38.84
2024-05-09T10:43:38.982Z,39.71
2024-05-09T10:46:51.099Z,40.56
2024-05-09T10:49:56.044Z,41.42
2024-05-09T10:52:58.713Z,38.09
2024-05-09T10:56:02.429Z,39.68
2024-05-09T10:59:05.925Z,36.41
2024-05-09T11:02:08.772Z,38.19
2024-05-09T11:05:12.201Z,39.59
2024-05-09T11:08:16.147Z,39.22
2024-05-09T11:11:19.185Z,37.64
2024-05-09T11:14:21.772Z,38.12
2024-05-09T11:17:24.554Z,37.44
2024-05-09T11:20:37.432Z,35.12
2024-05-09T11:23:40.374Z,36.70
2024-05-09T11:26:43.624Z,37.58
2024-05-09T11:29:47.766Z,38.16
2024-05-09T11:32:50.613Z,38.19
2024-05-09T11:35:53.276Z,35.01
2024-05-09T11:38:55.800Z,37.67
2024-05-09T11:41:58.443Z,36.71
2024-05-09T11:45:01.141Z,35.12
2024-05-09T11:48:04.520Z,36.14
2024-05-09T11:51:07.280Z,35.41
2024-05-09T11:54:09.845Z,36.45
2024-05-09T11:57:12.436Z,35.99
2024-05-09T12:00:20.707Z,37.89
2024-05-09T12:03:31.635Z,38.47
2024-05-09T12:06:34.365Z,35.81
2024-05-09T12:09:37.056Z,33.58
2024-05-09T12:12:40.442Z,33.70
2024-05-09T12:15:42.990Z,35.53
2024-05-09T12:18:45.730Z,35.18
2024-05-09T12:21:48.390Z,36.10
2024-05-09T12:24:50.962Z,36.73
2024-05-09T12:27:53.968Z,36.33
2024-05-09T12:30:56.584Z,36.80
2024-05-09T12:34:00.780Z,35.91
2024-05-09T12:37:03.536Z,36.80
2024-05-09T12:40:12.749Z,35.20
2024-05-09T12:43:21.162Z,35.92
2024-05-09T12:46:24.169Z,37.04
2024-05-09T12:49:27.042Z,35.65
2024-05-09T12:52:29.675Z,35.45
2024-05-09T12:55:43.922Z,35.94
2024-05-09T12:58:52.073Z,36.67
2024-05-09T13:01:56.540Z,36.04
2024-05-09T13:04:59.988Z,37.31
2024-05-09T13:08:03.922Z,35.95
2024-05-09T13:11:06.728Z,33.87
2024-05-09T13:14:09.317Z,35.98
2024-05-09T13:17:12.028Z,34.72
2024-05-09T13:20:22.921Z,36.01
2024-05-09T13:23:31.969Z,36.28
2024-05-09T13:26:34.742Z,38.24
2024-05-09T13:29:39.082Z,36.89
2024-05-09T13:32:43.104Z,36.34
2024-05-09T13:35:49.607Z,35.47
2024-05-09T13:38:53.639Z,35.53
2024-05-09T13:41:56.184Z,34.42
2024-05-09T13:44:58.802Z,33.22
2024-05-09T13:48:07.236Z,34.30
2024-05-09T13:51:09.958Z,33.36
2024-05-09T13:54:12.513Z,32.95
2024-05-09T13:57:15.026Z,34.31
2024-05-09T14:00:30.948Z,35.97
2024-05-09T14:03:40.466Z,34.59
2024-05-09T14:06:43.683Z,35.38
2024-05-09T14:09:47.490Z,36.81
2024-05-09T14:12:50.203Z,33.65
2024-05-09T14:15:53.050Z,33.84
2024-05-09T14:18:55.760Z,34.51
2024-05-09T14:21:58.373Z,33.28
2024-05-09T14:25:00.995Z,34.91
2024-05-09T14:28:04.376Z,34.04
2024-05-09T14:31:06.965Z,34.46
2024-05-09T14:34:09.923Z,37.13
2024-05-09T14:37:12.795Z,35.48
2024-05-09T14:40:30.488Z,35.79
2024-05-09T14:43:38.504Z,35.79
2024-05-09T14:46:41.078Z,36.02
2024-05-09T14:49:44.880Z,35.29
2024-05-09T14:52:47.590Z,34.57
2024-05-09T14:55:50.372Z,33.75
2024-05-09T14:58:53.317Z,34.43
2024-05-09T15:01:56.024Z,35.42
2024-05-09T15:04:59.134Z,35.52
2024-05-09T15:08:01.887Z,36.62
2024-05-09T15:11:04.700Z,35.94
2024-05-09T15:14:07.358Z,37.06
2024-05-09T15:17:09.882Z,36.32
2024-05-09T15:20:17.058Z,36.77
2024-05-09T15:23:23.046Z,35.86
2024-05-09T15:26:25.872Z,35.34
2024-05-09T15:29:29.979Z,33.96
2024-05-09T15:32:32.690Z,35.71
2024-05-09T15:35:36.276Z,36.50
2024-05-09T15:38:39.760Z,35.78
2024-05-09T15:41:42.456Z,36.61
2024-05-09T15:44:53.322Z,37.05
2024-05-09T15:47:57.399Z,36.72
2024-05-09T15:51:00.248Z,36.54
2024-05-09T15:54:02.811Z,36.13
2024-05-09T15:57:05.997Z,36.78
2024-05-09T16:00:18.072Z,38.12
2024-05-09T16:03:27.191Z,36.69
2024-05-09T16:06:29.886Z,36.16
2024-05-09T16:09:32.554Z,38.06
2024-05-09T16:12:35.062Z,37.00
2024-05-09T16:15:37.821Z,36.94
2024-05-09T16:18:40.743Z,36.33
2024-05-09T16:21:43.446Z,35.54
2024-05-09T16:24:46.081Z,35.35
2024-05-09T16:27:48.809Z,35.29
2024-05-09T16:30:52.021Z,34.78
2024-05-09T16:33:54.793Z,34.83
2024-05-09T16:36:57.572Z,35.66
2024-05-09T16:40:00.318Z,39.33
2024-05-09T16:43:06.511Z,36.56
2024-05-09T16:46:09.511Z,39.45
2024-05-09T16:49:12.230Z,38.07
2024-05-09T16:52:16.067Z,39.04
2024-05-09T16:55:19.452Z,42.84
2024-05-09T16:58:22.119Z,44.16
2024-05-09T17:01:24.744Z,46.68
2024-05-09T17:04:27.573Z,47.70
2024-05-09T17:07:30.534Z,50.08
2024-05-09T17:10:34.975Z,51.41
2024-05-09T17:13:39.809Z,52.72
2024-05-09T17:16:42.424Z,52.72
2024-05-09T17:19:49.337Z,54.47
2024-05-09T17:22:53.768Z,57.08
2024-05-09T17:25:59.757Z,56.95
2024-05-09T17:29:02.542Z,58.06
2024-05-09T17:32:06.468Z,58.63
2024-05-09T17:35:09.112Z,60.44
2024-05-09T17:38:11.929Z,61.11
2024-05-09T17:41:14.625Z,61.85
2024-05-09T17:44:17.179Z,63.33
2024-05-09T17:47:20.782Z,64.20
2024-05-09T17:50:30.336Z,64.36
2024-05-09T17:53:37.096Z,65.19
2024-05-09T17:56:39.592Z,65.80
2024-05-09T17:59:42.222Z,66.19
2024-05-09T18:02:44.932Z,66.74
2024-05-09T18:05:47.772Z,68.70
2024-05-09T18:08:50.427Z,69.27
2024-05-09T18:11:53.122Z,69.14
2024-05-09T18:14:55.723Z,70.17
2024-05-09T18:17:58.507Z,71.92
2024-05-09T18:21:01.325Z,73.22
2024-05-09T18:24:04.296Z,74.95
2024-05-09T18:27:06.881Z,76.06
2024-05-09T18:30:23.809Z,78.43
2024-05-09T18:33:30.977Z,79.92
2024-05-09T18:36:34.570Z,79.29
2024-05-09T18:39:37.520Z,81.26
2024-05-09T18:42:40.918Z,82.19
2024-05-09T18:45:43.767Z,84.36
2024-05-09T18:48:46.952Z,84.15
2024-05-09T18:51:50.668Z,85.94
2024-05-09T18:54:53.978Z,85.35
2024-05-09T18:57:56.926Z,85.70
2024-05-09T19:01:01.776Z,86.37
2024-05-09T19:04:05.590Z,87.56
2024-05-09T19:07:12.613Z,88.38
2024-05-09T19:10:22.501Z,88.64
2024-05-09T19:13:29.735Z,90.10
2024-05-09T19:16:33.652Z,89.96
2024-05-09T19:19:37.354Z,89.74
2024-05-09T19:22:40.161Z,89.34
2024-05-09T19:25:43.351Z,90.40
2024-05-09T19:28:46.823Z,91.32
2024-05-09T19:31:50.810Z,91.95
2024-05-09T19:34:54.476Z,91.08
2024-05-09T19:37:57.775Z,91.00
2024-05-09T19:41:01.234Z,92.24
2024-05-09T19:44:07.201Z,92.27
2024-05-09T19:47:09.955Z,92.58
2024-05-09T19:50:19.543Z,93.10
2024-05-09T19:53:26.921Z,94.71
2024-05-09T19:56:31.101Z,96.48
2024-05-09T19:59:34.360Z,97.27
2024-05-09T20:02:38.742Z,97.79
2024-05-09T20:05:45.131Z,98.08
2024-05-09T20:08:48.959Z,97.95
2024-05-09T20:11:52.452Z,98.22
2024-05-09T20:14:58.351Z,98.62
2024-05-09T20:18:02.256Z,99.43
2024-05-09T20:21:07.408Z,99.37
2024-05-09T20:24:11.567Z,99.25
2024-05-09T20:27:15.401Z,98.74
2024-05-09T20:30:25.473Z,99.48
2024-05-09T20:33:35.938Z,98.90
2024-05-09T20:36:40.888Z,99.22
2024-05-09T20:39:44.751Z,99.08
2024-05-09T20:42:49.314Z,99.15
2024-05-09T20:45:52.140Z,99.43
2024-05-09T20:48:56.768Z,98.96
2024-05-09T20:51:59.508Z,99.55
2024-05-09T20:55:02.255Z,98.80
2024-05-09T20:58:05.682Z,98.86
2024-05-09T21:01:08.463Z,100.00
2024-05-09T21:04:11.386Z,100.00
2024-05-09T21:07:14.486Z,100.00
2024-05-09T21:10:22.383Z,100.00
2024-05-09T21:13:26.010Z,99.90
2024-05-09T21:16:28.959Z,99.86
2024-05-09T21:19:31.517Z,98.85
2024-05-09T21:22:34.148Z,99.74
2024-05-09T21:25:37.032Z,100.00
2024-05-09T21:28:39.697Z,100.00
2024-05-09T21:31:42.224Z,100.00
2024-05-09T21:34:44.955Z,100.00
2024-05-09T21:37:47.632Z,100.00
2024-05-09T21:40:50.340Z,100.00
2024-05-09T21:43:52.884Z,100.00
2024-05-09T21:46:55.459Z,100.00
2024-05-09T21:49:57.981Z,100.00
2024-05-09T21:53:00.482Z,100.00
2024-05-09T21:56:03.043Z,100.00
2024-05-09T21:59:05.599Z,100.00
2024-05-09T22:02:09.445Z,100.00
2024-05-09T22:05:14.362Z,100.00
2024-05-09T22:08:17.233Z,100.00
2024-05-09T22:11:19.922Z,100.00
2024-05-09T22:14:22.742Z,100.00
2024-05-09T22:17:25.494Z,100.00
2024-05-09T22:20:34.518Z,100.00
2024-05-09T22:23:40.628Z,100.00
2024-05-09T22:26:43.256Z,100.00
2024-05-09T22:29:45.762Z,100.00
2024-05-09T22:32:48.502Z,100.00
2024-05-09T22:35:51.857Z,100.00
2024-05-09T22:38:54.451Z,100.00
2024-05-09T22:41:56.995Z,100.00
2024-05-09T22:44:59.513Z,100.00
2024-05-09T22:48:02.270Z,100.00
2024-05-09T22:51:05.281Z,100.00
2024-05-09T22:54:08.382Z,100.00
2024-05-09T22:57:10.869Z,100.00
2024-05-09T23:00:16.006Z,100.00
2024-05-09T23:03:21.904Z,100.00
2024-05-09T23:06:25.209Z,100.00
2024-05-09T23:09:27.742Z,100.00
2024-05-09T23:12:30.290Z,100.00
2024-05-09T23:15:32.870Z,100.00
2024-05-09T23:18:35.427Z,100.00
2024-05-09T23:21:41.341Z,100.00
2024-05-09T23:24:43.886Z,100.00
2024-05-09T23:27:46.545Z,100.00
2024-05-09T23:30:49.207Z,100.00
2024-05-09T23:33:51.951Z,100.00
2024-05-09T23:36:54.678Z,100.00
2024-05-09T23:39:57.270Z,100.00
2024-05-09T23:43:00.022Z,100.00
2024-05-09T23:46:03.131Z,100.00
2024-05-09T23:49:06.193Z,100.00
2024-05-09T23:52:08.804Z,100.00
2024-05-09T23:55:11.500Z,100.00
2024-05-09T23:58:14.176Z,100.00
